createdAt,value
2022-11-17T00:02:28.839Z,9.42
2022-11-17T00:07:27.269Z,9.43
2022-11-17T00:12:31.355Z,9.43
2022-11-17T00:17:27.209Z,9.45
2022-11-17T00:22:29.900Z,9.45
2022-11-17T00:27:27.276Z,9.45
2022-11-17T00:32:27.274Z,9.45
2022-11-17T00:37:31.870Z,9.48
2022-11-17T00:42:27.259Z,9.46
2022-11-17T00:47:27.293Z,9.45
2022-11-17T00:52:27.330Z,9.45
2022-11-17T00:57:27.394Z,9.47
2022-11-17T01:02:28.818Z,9.46
2022-11-17T01:07:27.403Z,9.49
2022-11-17T01:12:27.333Z,9.51
2022-11-17T01:17:27.360Z,9.51
2022-11-17T01:22:27.379Z,9.51
2022-11-17T01:27:27.387Z,9.55
2022-11-17T01:32:27.389Z,9.54
2022-11-17T01:37:27.422Z,9.55
2022-11-17T01:42:27.441Z,9.57
2022-11-17T01:47:33.584Z,9.62
2022-11-17T01:52:30.817Z,9.66
2022-11-17T01:57:32.314Z,9.71
2022-11-17T02:02:28.653Z,9.75
2022-11-17T02:07:31.866Z,9.72
2022-11-17T02:12:30.506Z,9.70
2022-11-17T02:17:38.637Z,9.73
2022-11-17T02:22:37.482Z,9.74
2022-11-17T02:27:34.039Z,9.75
2022-11-17T02:32:38.991Z,9.76
2022-11-17T02:37:36.928Z,9.78
2022-11-17T02:42:34.492Z,9.76
2022-11-17T02:47:31.022Z,9.80
2022-11-17T02:52:29.027Z,9.83
2022-11-17T02:57:33.281Z,9.82
2022-11-17T03:02:47.528Z,9.84
2022-11-17T03:07:37.625Z,9.85
2022-11-17T03:12:37.783Z,9.86
2022-11-17T03:17:43.366Z,9.88
2022-11-17T03:22:35.669Z,9.93
2022-11-17T03:27:39.550Z,9.90
2022-11-17T03:32:31.936Z,9.87
2022-11-17T03:37:32.828Z,9.86
2022-11-17T03:42:30.738Z,9.87
2022-11-17T03:47:30.104Z,9.91
2022-11-17T03:52:28.744Z,9.91
2022-11-17T03:57:37.653Z,9.95
2022-11-17T04:02:29.669Z,9.95
2022-11-17T04:07:27.781Z,9.84
2022-11-17T04:12:27.795Z,9.73
2022-11-17T04:17:27.783Z,9.64
2022-11-17T04:22:27.784Z,9.61
2022-11-17T04:27:27.778Z,9.57
2022-11-17T04:32:27.864Z,9.59
2022-11-17T04:37:27.802Z,9.62
2022-11-17T04:42:27.864Z,9.66
2022-11-17T04:47:27.920Z,9.71
2022-11-17T04:52:29.937Z,9.77
2022-11-17T04:57:27.833Z,9.84
2022-11-17T05:02:29.485Z,9.88
2022-11-17T05:07:27.957Z,9.91
2022-11-17T05:12:27.888Z,9.88
2022-11-17T05:17:27.902Z,9.85
2022-11-17T05:22:27.933Z,9.82
2022-11-17T05:27:28.079Z,9.81
2022-11-17T05:32:27.925Z,9.80
2022-11-17T05:37:27.999Z,9.79
2022-11-17T05:42:27.983Z,9.83
2022-11-17T05:47:27.961Z,9.83
2022-11-17T05:52:28.007Z,9.84
2022-11-17T05:57:30.535Z,9.85
2022-11-17T06:02:33.922Z,9.90
2022-11-17T06:07:28.137Z,9.93
2022-11-17T06:12:28.037Z,9.96
2022-11-17T06:17:34.554Z,9.97
2022-11-17T06:22:29.036Z,9.97
2022-11-17T06:27:30.947Z,9.96
2022-11-17T06:32:29.378Z,9.92
2022-11-17T06:37:28.083Z,9.92
2022-11-17T06:42:28.071Z,9.95
2022-11-17T06:47:28.121Z,9.97
2022-11-17T06:52:28.107Z,9.98
2022-11-17T06:57:28.944Z,10.00
2022-11-17T07:02:30.888Z,9.99
2022-11-17T07:07:28.227Z,9.97
2022-11-17T07:12:28.164Z,9.96
2022-11-17T07:17:28.164Z,9.90
2022-11-17T07:22:28.200Z,9.86
2022-11-17T07:27:28.181Z,9.83
2022-11-17T07:32:28.281Z,9.82
2022-11-17T07:37:28.301Z,9.76
2022-11-17T07:42:29.551Z,9.65
2022-11-17T07:47:28.240Z,9.59
2022-11-17T07:52:28.235Z,9.56
2022-11-17T07:57:28.269Z,9.53
2022-11-17T08:02:28.734Z,9.54
2022-11-17T08:07:28.326Z,9.54
2022-11-17T08:12:28.319Z,9.51
2022-11-17T08:17:28.345Z,9.45
2022-11-17T08:22:28.325Z,9.41
2022-11-17T08:27:28.388Z,9.38
2022-11-17T08:32:28.394Z,9.37
2022-11-17T08:37:29.562Z,9.37
2022-11-17T08:42:28.373Z,9.40
2022-11-17T08:47:29.307Z,9.45
2022-11-17T08:52:28.425Z,9.50
2022-11-17T08:57:28.932Z,9.52
2022-11-17T09:02:28.922Z,9.54
2022-11-17T09:07:34.726Z,9.54
2022-11-17T09:12:28.462Z,9.49
2022-11-17T09:17:29.812Z,9.49
2022-11-17T09:22:28.429Z,9.55
2022-11-17T09:27:28.456Z,9.59
2022-11-17T09:32:28.538Z,9.56
2022-11-17T09:37:28.494Z,9.50
2022-11-17T09:42:28.682Z,9.41
2022-11-17T09:47:47.596Z,9.39
2022-11-17T09:52:35.351Z,9.39
2022-11-17T09:57:41.064Z,9.39
2022-11-17T10:02:29.376Z,9.40
2022-11-17T10:07:33.237Z,9.40
2022-11-17T10:12:37.110Z,9.43
2022-11-17T10:17:28.568Z,9.43
2022-11-17T10:22:34.610Z,9.47
2022-11-17T10:27:31.486Z,9.50
2022-11-17T10:32:31.672Z,9.56
2022-11-17T10:37:29.779Z,9.61
2022-11-17T10:42:28.660Z,9.65
2022-11-17T10:47:32.178Z,9.70
2022-11-17T10:52:28.669Z,9.69
2022-11-17T10:57:29.577Z,9.72
2022-11-17T11:02:33.057Z,9.73
2022-11-17T11:07:28.758Z,9.70
2022-11-17T11:12:37.422Z,9.73
2022-11-17T11:17:28.825Z,9.75
2022-11-17T11:22:29.761Z,9.77
2022-11-17T11:27:47.034Z,9.75
2022-11-17T11:32:39.738Z,9.74
2022-11-17T11:37:36.050Z,9.79
2022-11-17T11:42:48.697Z,9.79
2022-11-17T11:47:48.689Z,9.80
2022-11-17T11:52:34.549Z,9.77
2022-11-17T11:57:35.599Z,9.80
2022-11-17T12:02:39.198Z,9.82
2022-11-17T12:07:43.277Z,9.81
2022-11-17T12:12:32.541Z,9.83
2022-11-17T12:17:28.932Z,9.82
2022-11-17T12:22:28.833Z,9.81
2022-11-17T12:27:36.250Z,9.83
2022-11-17T12:32:48.801Z,9.84
2022-11-17T12:37:28.883Z,9.81
2022-11-17T12:42:31.110Z,9.75
2022-11-17T12:47:35.528Z,9.75
2022-11-17T12:52:46.737Z,9.77
2022-11-17T12:57:31.765Z,9.75
2022-11-17T13:02:38.211Z,9.73
2022-11-17T13:07:29.051Z,9.76
2022-11-17T13:12:30.927Z,9.74
2022-11-17T13:17:33.733Z,9.71
2022-11-17T13:22:29.098Z,9.65
2022-11-17T13:27:30.336Z,9.60
2022-11-17T13:32:29.285Z,9.57
2022-11-17T13:37:29.737Z,9.59
2022-11-17T13:42:32.026Z,9.64
2022-11-17T13:47:36.413Z,9.68
2022-11-17T13:52:37.937Z,9.69
2022-11-17T13:57:29.480Z,9.72
2022-11-17T14:02:29.581Z,9.76
2022-11-17T14:07:31.544Z,9.81
2022-11-17T14:12:29.178Z,9.86
2022-11-17T14:17:29.180Z,9.91
2022-11-17T14:22:31.669Z,9.95
2022-11-17T14:27:29.134Z,10.00
2022-11-17T14:32:29.199Z,10.01
2022-11-17T14:37:31.066Z,10.08
2022-11-17T14:42:34.622Z,10.13
2022-11-17T14:47:29.190Z,10.18
2022-11-17T14:52:29.197Z,10.22
2022-11-17T14:57:29.178Z,10.27
2022-11-17T15:02:29.803Z,10.28
2022-11-17T15:07:29.334Z,10.26
2022-11-17T15:12:29.430Z,10.26
2022-11-17T15:17:29.621Z,10.24
2022-11-17T15:22:29.257Z,10.19
2022-11-17T15:27:29.606Z,10.13
2022-11-17T15:32:29.283Z,10.16
2022-11-17T15:37:29.313Z,10.12
2022-11-17T15:42:29.304Z,10.08
2022-11-17T15:47:29.328Z,10.06
2022-11-17T15:52:56.462Z,10.02
2022-11-17T15:57:29.353Z,10.01
2022-11-17T16:02:29.921Z,9.98
2022-11-17T16:07:29.681Z,9.98
2022-11-17T16:12:29.403Z,9.95
2022-11-17T16:17:29.407Z,9.89
2022-11-17T16:22:29.728Z,9.88
2022-11-17T16:27:30.145Z,9.84
2022-11-17T16:32:30.358Z,9.77
2022-11-17T16:37:29.441Z,9.77
2022-11-17T16:42:29.716Z,9.77
2022-11-17T16:47:31.015Z,9.78
2022-11-17T16:52:29.480Z,9.77
2022-11-17T16:57:29.480Z,9.77
2022-11-17T17:02:30.138Z,9.76
2022-11-17T17:07:29.573Z,9.82
2022-11-17T17:12:29.522Z,9.79
2022-11-17T17:17:29.526Z,9.73
2022-11-17T17:22:29.536Z,9.67
2022-11-17T17:27:29.983Z,9.61
2022-11-17T17:32:29.619Z,9.62
2022-11-17T17:37:30.735Z,9.56
2022-11-17T17:42:29.573Z,9.54
2022-11-17T17:47:29.592Z,9.52
2022-11-17T17:52:29.587Z,9.51
2022-11-17T17:57:33.744Z,9.49
2022-11-17T18:02:30.152Z,9.45
2022-11-17T18:07:29.938Z,9.48
2022-11-17T18:12:29.636Z,9.48
2022-11-17T18:17:30.000Z,9.42
2022-11-17T18:22:29.721Z,9.39
2022-11-17T18:27:29.733Z,9.28
2022-11-17T18:32:29.737Z,9.19
2022-11-17T18:37:29.737Z,9.11
2022-11-17T18:42:31.285Z,9.11
2022-11-17T18:47:29.729Z,9.09
2022-11-17T18:52:31.476Z,9.12
2022-11-17T18:57:29.722Z,9.08
2022-11-17T19:02:31.314Z,9.05
2022-11-17T19:07:30.720Z,9.09
2022-11-17T19:12:29.865Z,9.06
2022-11-17T19:17:29.821Z,9.00
2022-11-17T19:22:29.801Z,8.93
2022-11-17T19:27:29.826Z,8.92
2022-11-17T19:32:29.895Z,8.89
2022-11-17T19:37:29.899Z,8.83
2022-11-17T19:42:29.851Z,8.83
2022-11-17T19:47:29.876Z,8.82
2022-11-17T19:52:29.875Z,8.79
2022-11-17T19:57:29.895Z,8.73
2022-11-17T20:02:31.637Z,8.69
2022-11-17T20:07:30.007Z,8.64
2022-11-17T20:12:32.746Z,8.58
2022-11-17T20:17:29.927Z,8.54
2022-11-17T20:22:30.626Z,8.55
2022-11-17T20:27:30.574Z,8.52
2022-11-17T20:32:31.176Z,8.53
2022-11-17T20:37:30.021Z,8.60
2022-11-17T20:42:30.167Z,8.61
2022-11-17T20:47:30.022Z,8.65
2022-11-17T20:52:30.542Z,8.61
2022-11-17T20:57:31.216Z,8.60
2022-11-17T21:02:30.548Z,8.55
2022-11-17T21:07:30.131Z,8.46
2022-11-17T21:12:31.365Z,8.44
2022-11-17T21:17:32.446Z,8.38
2022-11-17T21:22:30.068Z,8.35
2022-11-17T21:27:30.074Z,8.34
2022-11-17T21:32:30.118Z,8.29
2022-11-17T21:37:30.211Z,8.26
2022-11-17T21:42:32.007Z,8.28
2022-11-17T21:47:30.139Z,8.25
2022-11-17T21:52:30.180Z,8.22
2022-11-17T21:57:30.161Z,8.21
2022-11-17T22:02:32.296Z,8.18
2022-11-17T22:07:30.272Z,8.16
2022-11-17T22:12:30.190Z,8.17
2022-11-17T22:17:30.204Z,8.15
2022-11-17T22:22:30.234Z,8.14
2022-11-17T22:27:30.205Z,8.16
2022-11-17T22:32:30.249Z,8.10
2022-11-17T22:37:30.230Z,8.09
2022-11-17T22:42:30.277Z,8.07
2022-11-17T22:47:30.300Z,7.99
2022-11-17T22:52:30.279Z,7.87
2022-11-17T22:57:30.290Z,7.80
2022-11-17T23:02:30.958Z,7.78
2022-11-17T23:07:30.479Z,7.76
2022-11-17T23:12:30.402Z,7.70
2022-11-17T23:17:30.356Z,7.64
2022-11-17T23:22:30.335Z,7.61
2022-11-17T23:27:30.365Z,7.58
2022-11-17T23:32:30.429Z,7.54
2022-11-17T23:37:30.431Z,7.53
2022-11-17T23:42:32.616Z,7.53
2022-11-17T23:47:30.416Z,7.50
2022-11-17T23:52:30.458Z,7.49
2022-11-17T23:57:30.433Z,7.46
